createdAt,value
2018-12-02T00:00:36.997Z,998.41
2018-12-02T00:01:37.019Z,998.41
2018-12-02T00:02:37.035Z,998.40
2018-12-02T00:03:37.053Z,998.34
2018-12-02T00:04:37.068Z,998.36
2018-12-02T00:05:37.091Z,998.27
2018-12-02T00:06:37.105Z,998.29
2018-12-02T00:07:37.122Z,998.25
2018-12-02T00:08:37.142Z,998.25
2018-12-02T00:09:37.156Z,998.17
2018-12-02T00:10:37.175Z,998.23
2018-12-02T00:11:37.193Z,998.27
2018-12-02T00:12:37.209Z,998.26
2018-12-02T00:13:37.228Z,998.22
2018-12-02T00:14:37.244Z,998.22
2018-12-02T00:15:37.264Z,998.17
2018-12-02T00:16:37.282Z,998.14
2018-12-02T00:17:37.301Z,998.19
2018-12-02T00:18:37.314Z,998.10
2018-12-02T00:19:37.336Z,998.10
2018-12-02T00:20:37.352Z,998.12
2018-12-02T00:21:37.370Z,998.14
2018-12-02T00:22:37.387Z,998.11
2018-12-02T00:23:37.405Z,998.02
2018-12-02T00:24:37.420Z,998.09
2018-12-02T00:25:37.441Z,998.11
2018-12-02T00:26:37.455Z,998.03
2018-12-02T00:27:37.476Z,998.03
2018-12-02T00:28:37.542Z,998.06
2018-12-02T00:29:37.511Z,998.07
2018-12-02T00:30:37.526Z,998.03
2018-12-02T00:31:37.547Z,998.05
2018-12-02T00:32:37.564Z,998.10
2018-12-02T00:33:37.581Z,998.12
2018-12-02T00:34:37.597Z,998.07
2018-12-02T00:35:37.615Z,998.05
2018-12-02T00:36:37.635Z,998.08
2018-12-02T00:37:37.650Z,998.10
2018-12-02T00:38:37.669Z,998.05
2018-12-02T00:39:37.687Z,998.04
2018-12-02T00:40:37.704Z,998.06
2018-12-02T00:41:37.723Z,998.07
2018-12-02T00:42:37.738Z,998.01
2018-12-02T00:43:37.760Z,998.01
2018-12-02T00:44:37.783Z,998.02
2018-12-02T00:45:37.794Z,998.00
2018-12-02T00:46:37.808Z,997.97
2018-12-02T00:47:37.828Z,997.97
2018-12-02T00:48:37.844Z,997.92
2018-12-02T00:49:37.865Z,997.91
2018-12-02T00:50:37.886Z,997.90
2018-12-02T00:51:37.898Z,997.97
2018-12-02T00:52:37.916Z,997.88
2018-12-02T00:53:37.932Z,997.82
2018-12-02T00:54:37.951Z,997.88
2018-12-02T00:55:37.969Z,997.85
2018-12-02T00:56:37.985Z,997.92
2018-12-02T00:57:38.003Z,997.84
2018-12-02T00:58:38.020Z,997.75
2018-12-02T00:59:38.040Z,997.83
2018-12-02T01:00:38.058Z,997.79
2018-12-02T01:01:38.076Z,997.78
2018-12-02T01:02:38.091Z,997.78
2018-12-02T01:03:38.110Z,997.72
2018-12-02T01:04:38.129Z,997.72
2018-12-02T01:05:38.147Z,997.69
2018-12-02T01:06:38.161Z,997.73
2018-12-02T01:07:38.206Z,997.72
2018-12-02T01:08:38.202Z,997.66
2018-12-02T01:09:38.218Z,997.64
2018-12-02T01:10:38.235Z,997.61
2018-12-02T01:11:38.252Z,997.58
2018-12-02T01:12:38.270Z,997.56
2018-12-02T01:13:38.288Z,997.55
2018-12-02T01:14:38.304Z,997.54
2018-12-02T01:15:38.325Z,997.54
2018-12-02T01:16:38.347Z,997.52
2018-12-02T01:17:38.361Z,997.54
2018-12-02T01:18:38.373Z,997.51
2018-12-02T01:19:38.408Z,997.52
2018-12-02T01:20:38.410Z,997.44
2018-12-02T01:21:38.430Z,997.45
2018-12-02T01:22:38.445Z,997.37
2018-12-02T01:23:38.462Z,997.36
2018-12-02T01:24:38.480Z,997.34
2018-12-02T01:25:38.500Z,997.32
2018-12-02T01:26:38.515Z,997.29
2018-12-02T01:27:38.537Z,997.26
2018-12-02T01:28:38.553Z,997.24
2018-12-02T01:29:38.574Z,997.21
2018-12-02T01:30:38.586Z,997.22
2018-12-02T01:31:38.604Z,997.18
2018-12-02T01:32:38.628Z,997.21
2018-12-02T01:33:38.644Z,997.19
2018-12-02T01:34:38.661Z,997.21
2018-12-02T01:35:38.675Z,997.19
2018-12-02T01:36:38.696Z,997.09
2018-12-02T01:37:39.061Z,997.18
2018-12-02T01:38:38.734Z,997.19
2018-12-02T01:39:38.749Z,997.13
2018-12-02T01:40:38.766Z,997.16
2018-12-02T01:41:38.782Z,997.19
2018-12-02T01:42:38.799Z,997.18
2018-12-02T01:43:38.817Z,997.14
2018-12-02T01:44:38.834Z,997.10
2018-12-02T01:45:38.852Z,997.05
2018-12-02T01:46:38.872Z,997.04
2018-12-02T01:47:38.888Z,997.03
2018-12-02T01:48:38.905Z,997.01
2018-12-02T01:49:38.926Z,996.95
2018-12-02T01:50:38.943Z,996.89
2018-12-02T01:51:38.958Z,996.89
2018-12-02T01:52:38.979Z,996.92
2018-12-02T01:53:38.994Z,996.87
2018-12-02T01:54:39.013Z,996.87
2018-12-02T01:55:39.030Z,996.82
2018-12-02T01:56:39.049Z,996.82
2018-12-02T01:57:39.064Z,996.80
2018-12-02T01:58:39.081Z,996.82
2018-12-02T01:59:39.099Z,996.82
2018-12-02T02:00:39.120Z,996.76
2018-12-02T02:01:39.137Z,996.75
2018-12-02T02:02:39.152Z,996.78
2018-12-02T02:03:39.172Z,996.80
2018-12-02T02:04:39.190Z,996.73
2018-12-02T02:05:39.209Z,996.74
2018-12-02T02:06:39.226Z,996.73
2018-12-02T02:07:39.246Z,996.68
2018-12-02T02:08:39.259Z,996.66
2018-12-02T02:09:39.279Z,996.62
2018-12-02T02:10:39.295Z,996.62
2018-12-02T02:11:39.314Z,996.60
2018-12-02T02:12:39.331Z,996.58
2018-12-02T02:13:39.347Z,996.50
2018-12-02T02:14:39.367Z,996.48
2018-12-02T02:15:39.384Z,996.44
2018-12-02T02:16:39.402Z,996.40
2018-12-02T02:17:39.420Z,996.41
2018-12-02T02:18:39.437Z,996.44
2018-12-02T02:19:39.457Z,996.43
2018-12-02T02:20:39.471Z,996.46
2018-12-02T02:21:39.489Z,996.41
2018-12-02T02:22:39.508Z,996.31
2018-12-02T02:23:39.527Z,996.33
2018-12-02T02:24:39.543Z,996.26
2018-12-02T02:25:39.561Z,996.33
2018-12-02T02:26:39.579Z,996.26
2018-12-02T02:27:39.597Z,996.31
2018-12-02T02:28:39.620Z,996.30
2018-12-02T02:29:39.631Z,996.22
2018-12-02T02:30:39.655Z,996.20
2018-12-02T02:31:39.670Z,996.18
2018-12-02T02:32:39.698Z,996.09
2018-12-02T02:33:39.707Z,996.13
2018-12-02T02:34:39.721Z,996.09
2018-12-02T02:35:39.738Z,996.10
2018-12-02T02:36:39.755Z,996.12
2018-12-02T02:37:39.826Z,996.14
2018-12-02T02:38:39.794Z,996.15
2018-12-02T02:39:39.811Z,996.09
2018-12-02T02:40:39.826Z,996.06
2018-12-02T02:41:39.846Z,996.02
2018-12-02T02:42:39.861Z,995.94
2018-12-02T02:43:39.880Z,995.95
2018-12-02T02:44:39.899Z,996.03
2018-12-02T02:45:39.917Z,995.96
2018-12-02T02:46:39.932Z,995.93
2018-12-02T02:47:39.951Z,995.86
2018-12-02T02:48:39.970Z,995.88
2018-12-02T02:49:39.991Z,995.87
2018-12-02T02:50:40.002Z,995.93
2018-12-02T02:51:40.022Z,995.95
2018-12-02T02:52:40.039Z,995.97
2018-12-02T02:53:40.059Z,995.98
2018-12-02T02:54:40.081Z,995.93
2018-12-02T02:55:40.092Z,995.96
2018-12-02T02:56:40.109Z,995.89
2018-12-02T02:57:40.130Z,995.89
2018-12-02T02:58:40.147Z,995.88
2018-12-02T02:59:40.164Z,995.84
2018-12-02T03:00:40.183Z,995.85
2018-12-02T03:01:40.202Z,995.77
2018-12-02T03:02:40.218Z,995.74
2018-12-02T03:03:40.234Z,995.77
2018-12-02T03:04:40.254Z,995.77
2018-12-02T03:05:40.270Z,995.74
2018-12-02T03:06:40.287Z,995.74
2018-12-02T03:07:40.306Z,995.71
2018-12-02T03:08:40.331Z,995.72
2018-12-02T03:09:40.344Z,995.68
2018-12-02T03:10:40.357Z,995.67
2018-12-02T03:11:40.377Z,995.63
2018-12-02T03:12:40.398Z,995.67
2018-12-02T03:13:40.412Z,995.68
2018-12-02T03:14:40.429Z,995.63
2018-12-02T03:15:40.450Z,995.63
2018-12-02T03:16:40.468Z,995.60
2018-12-02T03:17:40.483Z,995.61
2018-12-02T03:18:40.503Z,995.58
2018-12-02T03:19:40.518Z,995.58
2018-12-02T03:20:40.538Z,995.62
2018-12-02T03:21:40.561Z,995.65
2018-12-02T03:22:40.571Z,995.66
2018-12-02T03:23:40.591Z,995.68
2018-12-02T03:24:40.610Z,995.66
2018-12-02T03:25:40.627Z,995.58
2018-12-02T03:26:40.641Z,995.64
2018-12-02T03:27:40.660Z,995.60
2018-12-02T03:28:40.679Z,995.65
2018-12-02T03:29:40.697Z,995.65
2018-12-02T03:30:40.718Z,995.67
2018-12-02T03:31:40.735Z,995.66
2018-12-02T03:32:40.753Z,995.62
2018-12-02T03:33:40.768Z,995.66
2018-12-02T03:34:40.784Z,995.64
2018-12-02T03:35:40.805Z,995.63
2018-12-02T03:36:40.822Z,995.60
2018-12-02T03:37:41.892Z,995.61
2018-12-02T03:38:40.857Z,995.60
2018-12-02T03:39:40.877Z,995.57
2018-12-02T03:40:40.894Z,995.60
2018-12-02T03:41:40.910Z,995.56
2018-12-02T03:42:40.938Z,995.57
2018-12-02T03:43:40.945Z,995.55
2018-12-02T03:44:40.966Z,995.55
2018-12-02T03:45:40.985Z,995.53
2018-12-02T03:46:40.999Z,995.54
2018-12-02T03:47:41.017Z,995.43
2018-12-02T03:48:41.038Z,995.54
2018-12-02T03:49:41.065Z,995.46
2018-12-02T03:50:41.073Z,995.49
2018-12-02T03:51:41.091Z,995.50
2018-12-02T03:52:41.109Z,995.49
2018-12-02T03:53:41.125Z,995.51
2018-12-02T03:54:41.147Z,995.45
2018-12-02T03:55:41.163Z,995.50
2018-12-02T03:56:41.178Z,995.43
2018-12-02T03:57:41.195Z,995.47
2018-12-02T03:58:41.213Z,995.44
2018-12-02T03:59:41.233Z,995.45
2018-12-02T04:00:41.251Z,995.38
2018-12-02T04:01:41.268Z,995.37
2018-12-02T04:02:41.284Z,995.36
2018-12-02T04:03:41.302Z,995.39
2018-12-02T04:04:41.320Z,995.34
2018-12-02T04:05:41.337Z,995.32
2018-12-02T04:06:41.355Z,995.34
2018-12-02T04:07:41.384Z,995.30
2018-12-02T04:08:41.390Z,995.25
2018-12-02T04:09:41.424Z,995.26
2018-12-02T04:10:41.427Z,995.24
2018-12-02T04:11:41.447Z,995.18
2018-12-02T04:12:41.475Z,995.15
2018-12-02T04:13:41.482Z,995.15
2018-12-02T04:14:41.495Z,995.11
2018-12-02T04:15:41.515Z,995.09
2018-12-02T04:16:41.531Z,995.00
2018-12-02T04:17:41.551Z,995.04
2018-12-02T04:18:41.566Z,994.92
2018-12-02T04:19:41.586Z,995.00
2018-12-02T04:20:41.603Z,995.00
2018-12-02T04:21:41.619Z,994.99
2018-12-02T04:22:41.641Z,994.97
2018-12-02T04:23:41.655Z,994.94
2018-12-02T04:24:41.673Z,994.93
2018-12-02T04:25:41.688Z,994.86
2018-12-02T04:26:41.711Z,994.93
2018-12-02T04:27:41.726Z,994.85
2018-12-02T04:28:41.740Z,994.86
2018-12-02T04:29:41.761Z,994.86
2018-12-02T04:30:41.775Z,994.81
2018-12-02T04:31:41.795Z,994.82
2018-12-02T04:32:41.815Z,994.79
2018-12-02T04:33:41.835Z,994.78
2018-12-02T04:34:41.845Z,994.79
2018-12-02T04:35:41.866Z,994.73
2018-12-02T04:36:41.883Z,994.73
2018-12-02T04:37:41.900Z,994.72
2018-12-02T04:38:41.917Z,994.71
2018-12-02T04:39:41.936Z,994.70
2018-12-02T04:40:41.950Z,994.71
2018-12-02T04:41:41.975Z,994.67
2018-12-02T04:42:41.988Z,994.70
2018-12-02T04:43:42.002Z,994.60
2018-12-02T04:44:42.019Z,994.65
2018-12-02T04:45:42.040Z,994.62
2018-12-02T04:46:42.057Z,994.60
2018-12-02T04:47:42.072Z,994.57
2018-12-02T04:48:42.141Z,994.53
2018-12-02T04:49:42.108Z,994.56
2018-12-02T04:50:42.124Z,994.52
2018-12-02T04:51:42.145Z,994.51
2018-12-02T04:52:42.161Z,994.51
2018-12-02T04:53:42.179Z,994.48
2018-12-02T04:54:42.196Z,994.50
2018-12-02T04:55:42.213Z,994.45
2018-12-02T04:56:42.231Z,994.48
2018-12-02T04:57:42.251Z,994.46
2018-12-02T04:58:42.263Z,994.46
2018-12-02T04:59:42.282Z,994.47
2018-12-02T05:00:42.302Z,994.39
2018-12-02T05:01:42.318Z,994.41
2018-12-02T05:02:42.334Z,994.41
2018-12-02T05:03:42.355Z,994.43
2018-12-02T05:04:42.374Z,994.40
2018-12-02T05:05:42.390Z,994.35
2018-12-02T05:06:42.406Z,994.37
2018-12-02T05:07:42.424Z,994.37
2018-12-02T05:08:42.440Z,994.29
2018-12-02T05:09:42.460Z,994.30
2018-12-02T05:10:42.475Z,994.28
2018-12-02T05:11:42.493Z,994.31
2018-12-02T05:12:42.512Z,994.33
2018-12-02T05:13:42.527Z,994.25
2018-12-02T05:14:42.546Z,994.27
2018-12-02T05:15:42.561Z,994.27
2018-12-02T05:16:42.581Z,994.23
2018-12-02T05:17:42.601Z,994.29
2018-12-02T05:18:42.614Z,994.23
2018-12-02T05:19:42.634Z,994.21
2018-12-02T05:20:42.648Z,994.22
2018-12-02T05:21:42.669Z,994.20
2018-12-02T05:22:42.684Z,994.18
2018-12-02T05:23:42.701Z,994.20
2018-12-02T05:24:42.717Z,994.16
2018-12-02T05:25:42.736Z,994.14
2018-12-02T05:26:42.753Z,994.12
2018-12-02T05:27:42.969Z,994.10
2018-12-02T05:28:42.789Z,994.11
2018-12-02T05:29:42.813Z,994.13
2018-12-02T05:30:42.822Z,994.07
2018-12-02T05:31:42.842Z,994.04
2018-12-02T05:32:42.857Z,994.01
2018-12-02T05:33:42.875Z,994.03
2018-12-02T05:34:42.893Z,994.00
2018-12-02T05:35:42.909Z,994.06
2018-12-02T05:36:42.927Z,994.00
2018-12-02T05:37:42.947Z,994.02
2018-12-02T05:38:42.964Z,994.00
2018-12-02T05:39:42.977Z,993.99
2018-12-02T05:40:42.997Z,993.95
2018-12-02T05:41:43.015Z,993.94
2018-12-02T05:42:43.032Z,993.93
2018-12-02T05:43:43.051Z,993.93
2018-12-02T05:44:43.068Z,993.94
2018-12-02T05:45:43.083Z,993.93
2018-12-02T05:46:43.102Z,993.91
2018-12-02T05:47:43.122Z,993.89
2018-12-02T05:48:43.135Z,993.89
2018-12-02T05:49:43.154Z,993.84
2018-12-02T05:50:43.169Z,993.85
2018-12-02T05:51:43.189Z,993.81
2018-12-02T05:52:43.208Z,993.80
2018-12-02T05:53:43.224Z,993.83
2018-12-02T05:54:43.238Z,993.76
2018-12-02T05:55:43.256Z,993.82
2018-12-02T05:56:43.274Z,993.79
2018-12-02T05:57:43.292Z,993.77
2018-12-02T05:58:43.309Z,993.78
2018-12-02T05:59:43.326Z,993.76
2018-12-02T06:00:43.344Z,993.78
2018-12-02T06:01:43.362Z,993.76
2018-12-02T06:02:43.379Z,993.76
2018-12-02T06:03:43.399Z,993.73
2018-12-02T06:04:43.414Z,993.75
2018-12-02T06:05:43.433Z,993.74
2018-12-02T06:06:43.451Z,993.71
2018-12-02T06:07:43.467Z,993.71
2018-12-02T06:08:43.484Z,993.64
2018-12-02T06:09:43.504Z,993.66
2018-12-02T06:10:43.521Z,993.66
2018-12-02T06:11:43.891Z,993.64
2018-12-02T06:12:43.554Z,993.62
2018-12-02T06:13:43.574Z,993.61
2018-12-02T06:14:43.589Z,993.62
2018-12-02T06:15:43.608Z,993.59
2018-12-02T06:16:43.624Z,993.58
2018-12-02T06:17:43.643Z,993.54
2018-12-02T06:18:43.659Z,993.56
2018-12-02T06:19:43.679Z,993.53
2018-12-02T06:20:43.694Z,993.54
2018-12-02T06:21:43.714Z,993.53
2018-12-02T06:22:43.728Z,993.49
2018-12-02T06:23:43.746Z,993.50
2018-12-02T06:24:43.763Z,993.46
2018-12-02T06:25:46.475Z,993.44
2018-12-02T06:26:43.800Z,993.40
2018-12-02T06:27:43.818Z,993.44
2018-12-02T06:28:43.836Z,993.43
2018-12-02T06:29:43.851Z,993.39
2018-12-02T06:30:43.868Z,993.40
2018-12-02T06:31:43.894Z,993.37
2018-12-02T06:32:43.905Z,993.33
2018-12-02T06:33:43.921Z,993.35
2018-12-02T06:34:43.940Z,993.33
2018-12-02T06:35:43.955Z,993.35
2018-12-02T06:36:43.974Z,993.31
2018-12-02T06:37:43.993Z,993.32
2018-12-02T06:38:44.010Z,993.32
2018-12-02T06:39:44.029Z,993.29
2018-12-02T06:40:44.054Z,993.31
2018-12-02T06:41:44.060Z,993.27
2018-12-02T06:42:44.081Z,993.28
2018-12-02T06:43:44.097Z,993.27
2018-12-02T06:44:44.114Z,993.16
2018-12-02T06:45:44.132Z,993.21
2018-12-02T06:46:44.149Z,993.17
2018-12-02T06:47:44.167Z,993.19
2018-12-02T06:48:44.182Z,993.18
2018-12-02T06:49:44.202Z,993.18
2018-12-02T06:50:44.217Z,993.12
2018-12-02T06:51:44.236Z,993.17
2018-12-02T06:52:44.252Z,993.16
2018-12-02T06:53:44.276Z,993.17
2018-12-02T06:54:44.289Z,993.18
2018-12-02T06:55:44.308Z,993.16
2018-12-02T06:56:44.325Z,993.22
2018-12-02T06:57:44.339Z,993.20
2018-12-02T06:58:44.356Z,993.20
2018-12-02T06:59:44.374Z,993.24
2018-12-02T07:00:44.392Z,993.23
2018-12-02T07:01:44.412Z,993.23
2018-12-02T07:02:44.429Z,993.23
2018-12-02T07:03:44.446Z,993.27
2018-12-02T07:04:44.461Z,993.24
2018-12-02T07:05:44.482Z,993.23
2018-12-02T07:06:44.500Z,993.28
2018-12-02T07:07:44.520Z,993.24
2018-12-02T07:08:44.534Z,993.29
2018-12-02T07:09:44.553Z,993.21
2018-12-02T07:10:44.566Z,993.23
2018-12-02T07:11:44.587Z,993.24
2018-12-02T07:12:44.602Z,993.19
2018-12-02T07:13:44.620Z,993.14
2018-12-02T07:14:44.639Z,993.15
2018-12-02T07:15:44.656Z,993.19
2018-12-02T07:16:44.674Z,993.15
2018-12-02T07:17:44.693Z,993.14
2018-12-02T07:18:44.709Z,993.10
2018-12-02T07:19:44.724Z,993.09
2018-12-02T07:20:44.743Z,993.06
2018-12-02T07:21:44.764Z,993.06
2018-12-02T07:22:44.782Z,993.00
2018-12-02T07:23:44.798Z,992.98
2018-12-02T07:24:44.812Z,993.01
2018-12-02T07:25:44.833Z,992.99
2018-12-02T07:26:44.847Z,992.96
2018-12-02T07:27:44.871Z,992.94
2018-12-02T07:28:44.886Z,992.94
2018-12-02T07:29:44.901Z,992.92
2018-12-02T07:30:44.919Z,992.94
2018-12-02T07:31:44.938Z,992.93
2018-12-02T07:32:44.953Z,992.92
2018-12-02T07:33:44.972Z,992.88
2018-12-02T07:34:44.987Z,992.92
2018-12-02T07:35:45.005Z,992.92
2018-12-02T07:36:45.025Z,992.89
2018-12-02T07:37:45.042Z,992.89
2018-12-02T07:38:45.059Z,992.87
2018-12-02T07:39:45.075Z,992.87
2018-12-02T07:40:45.094Z,992.82
2018-12-02T07:41:45.111Z,992.89
2018-12-02T07:42:45.129Z,992.83
2018-12-02T07:43:45.146Z,992.82
2018-12-02T07:44:45.165Z,992.88
2018-12-02T07:45:45.179Z,992.80
2018-12-02T07:46:45.198Z,992.82
2018-12-02T07:47:45.214Z,992.79
2018-12-02T07:48:45.236Z,992.79
2018-12-02T07:49:45.252Z,992.80
2018-12-02T07:50:45.318Z,992.74
2018-12-02T07:51:45.285Z,992.77
2018-12-02T07:52:45.303Z,992.77
2018-12-02T07:53:45.319Z,992.75
2018-12-02T07:54:45.338Z,992.74
2018-12-02T07:55:45.353Z,992.70
2018-12-02T07:56:45.374Z,992.73
2018-12-02T07:57:45.390Z,992.68
2018-12-02T07:58:45.406Z,992.75
2018-12-02T07:59:45.428Z,992.66
2018-12-02T08:00:45.442Z,992.70
2018-12-02T08:01:45.465Z,992.70
2018-12-02T08:02:45.478Z,992.71
2018-12-02T08:03:45.493Z,992.67
2018-12-02T08:04:45.513Z,992.68
2018-12-02T08:05:45.530Z,992.64
2018-12-02T08:06:45.545Z,992.63
2018-12-02T08:07:45.563Z,992.63
2018-12-02T08:08:45.583Z,992.62
2018-12-02T08:09:45.598Z,992.57
2018-12-02T08:10:45.617Z,992.59
2018-12-02T08:11:45.635Z,992.58
2018-12-02T08:12:45.650Z,992.53
2018-12-02T08:13:45.671Z,992.54
2018-12-02T08:14:45.687Z,992.57
2018-12-02T08:15:45.703Z,992.52
2018-12-02T08:16:45.724Z,992.54
2018-12-02T08:17:45.741Z,992.47
2018-12-02T08:18:45.761Z,992.47
2018-12-02T08:19:45.774Z,992.43
2018-12-02T08:20:45.793Z,992.49
2018-12-02T08:21:45.809Z,992.51
2018-12-02T08:22:51.131Z,992.49
2018-12-02T08:23:45.843Z,992.39
2018-12-02T08:24:45.860Z,992.44
2018-12-02T08:25:45.883Z,992.49
2018-12-02T08:26:45.898Z,992.47
2018-12-02T08:27:45.921Z,992.44
2018-12-02T08:28:45.930Z,992.46
2018-12-02T08:29:45.948Z,992.42
2018-12-02T08:30:45.973Z,992.40
2018-12-02T08:31:45.983Z,992.41
2018-12-02T08:32:46.003Z,992.45
2018-12-02T08:33:46.019Z,992.46
2018-12-02T08:34:46.038Z,992.43
2018-12-02T08:35:46.058Z,992.33
2018-12-02T08:36:46.076Z,992.35
2018-12-02T08:37:46.089Z,992.42
2018-12-02T08:38:46.107Z,992.41
2018-12-02T08:39:46.123Z,992.47
2018-12-02T08:40:46.141Z,992.45
2018-12-02T08:41:46.161Z,992.37
2018-12-02T08:42:46.176Z,992.41
2018-12-02T08:43:46.196Z,992.42
2018-12-02T08:44:46.213Z,992.47
2018-12-02T08:45:46.229Z,992.46
2018-12-02T08:46:46.250Z,992.49
2018-12-02T08:47:46.266Z,992.50
2018-12-02T08:48:46.285Z,992.49
2018-12-02T08:49:46.307Z,992.46
2018-12-02T08:50:46.319Z,992.49
2018-12-02T08:51:46.336Z,992.47
2018-12-02T08:52:46.353Z,992.45
2018-12-02T08:53:46.376Z,992.51
2018-12-02T08:54:46.388Z,992.45
2018-12-02T08:55:46.408Z,992.46
2018-12-02T08:56:46.426Z,992.42
2018-12-02T08:57:46.443Z,992.43
2018-12-02T08:58:46.466Z,992.39
2018-12-02T08:59:46.479Z,992.37
2018-12-02T09:00:46.498Z,992.39
2018-12-02T09:01:46.516Z,992.35
2018-12-02T09:02:46.536Z,992.38
2018-12-02T09:03:46.549Z,992.37
2018-12-02T09:04:46.567Z,992.30
2018-12-02T09:05:46.584Z,992.35
2018-12-02T09:06:46.600Z,992.35
2018-12-02T09:07:46.618Z,992.31
2018-12-02T09:08:46.639Z,992.31
2018-12-02T09:09:46.654Z,992.28
2018-12-02T09:10:46.672Z,992.30
2018-12-02T09:11:46.688Z,992.29
2018-12-02T09:12:46.757Z,992.27
2018-12-02T09:13:46.727Z,992.35
2018-12-02T09:14:46.744Z,992.29
2018-12-02T09:15:46.762Z,992.31
2018-12-02T09:16:46.780Z,992.34
2018-12-02T09:17:46.798Z,992.32
2018-12-02T09:18:46.814Z,992.32
2018-12-02T09:19:46.831Z,992.26
2018-12-02T09:20:46.849Z,992.27
2018-12-02T09:21:46.867Z,992.22
2018-12-02T09:22:46.886Z,992.22
2018-12-02T09:23:47.452Z,992.23
2018-12-02T09:24:46.920Z,992.23
2018-12-02T09:25:46.938Z,992.22
2018-12-02T09:26:46.955Z,992.29
2018-12-02T09:27:46.975Z,992.28
2018-12-02T09:28:46.993Z,992.27
2018-12-02T09:29:47.012Z,992.23
2018-12-02T09:30:47.028Z,992.22
2018-12-02T09:31:47.048Z,992.26
2018-12-02T09:32:47.063Z,992.26
2018-12-02T09:33:47.080Z,992.29
2018-12-02T09:34:47.101Z,992.29
2018-12-02T09:35:47.118Z,992.30
2018-12-02T09:36:47.136Z,992.29
2018-12-02T09:37:47.152Z,992.26
2018-12-02T09:38:47.169Z,992.28
2018-12-02T09:39:47.188Z,992.27
2018-12-02T09:40:47.209Z,992.27
2018-12-02T09:41:47.223Z,992.26
2018-12-02T09:42:47.244Z,992.27
2018-12-02T09:43:47.259Z,992.23
2018-12-02T09:44:47.277Z,992.20
2018-12-02T09:45:47.298Z,992.13
2018-12-02T09:46:47.316Z,992.08
2018-12-02T09:47:47.329Z,992.17
2018-12-02T09:48:47.348Z,992.15
2018-12-02T09:49:47.368Z,992.12
2018-12-02T09:50:47.383Z,992.07
2018-12-02T09:51:47.402Z,992.12
2018-12-02T09:52:47.424Z,992.10
2018-12-02T09:53:47.441Z,992.08
2018-12-02T09:54:47.457Z,992.08
2018-12-02T09:55:47.476Z,992.13
2018-12-02T09:56:47.491Z,992.11
2018-12-02T09:57:47.509Z,992.10
2018-12-02T09:58:47.526Z,992.13
2018-12-02T09:59:47.546Z,992.09
2018-12-02T10:00:47.564Z,992.09
2018-12-02T10:01:47.580Z,992.02
2018-12-02T10:02:47.901Z,992.07
2018-12-02T10:03:47.618Z,992.09
2018-12-02T10:04:47.637Z,992.09
2018-12-02T10:05:47.652Z,992.09
2018-12-02T10:06:47.669Z,992.06
2018-12-02T10:07:47.692Z,992.12
2018-12-02T10:08:47.707Z,992.16
2018-12-02T10:09:47.726Z,992.12
2018-12-02T10:10:47.741Z,992.09
2018-12-02T10:11:47.761Z,992.08
2018-12-02T10:12:47.780Z,992.07
2018-12-02T10:13:47.796Z,992.05
2018-12-02T10:14:47.814Z,992.10
2018-12-02T10:15:47.833Z,992.18
2018-12-02T10:16:47.850Z,992.09
2018-12-02T10:17:47.870Z,992.11
2018-12-02T10:18:47.936Z,992.09
2018-12-02T10:19:47.903Z,992.04
2018-12-02T10:20:47.919Z,992.07
2018-12-02T10:21:47.939Z,992.10
2018-12-02T10:22:47.955Z,992.12
2018-12-02T10:23:47.972Z,992.07
2018-12-02T10:24:47.990Z,992.05
2018-12-02T10:25:48.008Z,992.07
2018-12-02T10:26:48.028Z,992.00
2018-12-02T10:27:48.046Z,992.06
2018-12-02T10:28:48.062Z,992.05
2018-12-02T10:29:48.081Z,992.03
2018-12-02T10:30:48.096Z,991.98
2018-12-02T10:31:48.115Z,992.01
2018-12-02T10:32:48.133Z,991.98
2018-12-02T10:33:48.153Z,992.01
2018-12-02T10:34:48.170Z,992.04
2018-12-02T10:35:48.187Z,991.99
2018-12-02T10:36:48.205Z,992.02
2018-12-02T10:37:48.226Z,992.01
2018-12-02T10:38:48.240Z,991.98
2018-12-02T10:39:48.366Z,991.94
2018-12-02T10:40:48.280Z,991.98
2018-12-02T10:41:48.301Z,991.97
2018-12-02T10:42:48.313Z,991.94
2018-12-02T10:43:48.330Z,991.89
2018-12-02T10:44:48.348Z,991.88
2018-12-02T10:45:48.369Z,991.90
2018-12-02T10:46:48.383Z,991.97
2018-12-02T10:47:48.401Z,991.92
2018-12-02T10:48:48.422Z,991.96
2018-12-02T10:49:48.441Z,991.91
2018-12-02T10:50:48.457Z,991.90
2018-12-02T10:51:48.473Z,991.92
2018-12-02T10:52:48.493Z,991.89
2018-12-02T10:53:48.510Z,991.89
2018-12-02T10:54:48.529Z,991.91
2018-12-02T10:55:48.547Z,991.86
2018-12-02T10:56:48.565Z,991.87
2018-12-02T10:57:48.584Z,991.86
2018-12-02T10:58:48.601Z,991.90
2018-12-02T10:59:48.619Z,991.90
2018-12-02T11:00:48.637Z,991.88
2018-12-02T11:01:48.653Z,991.85
2018-12-02T11:02:48.672Z,991.87
2018-12-02T11:03:48.689Z,991.86
2018-12-02T11:04:48.710Z,991.92
2018-12-02T11:05:48.726Z,991.86
2018-12-02T11:06:48.747Z,991.86
2018-12-02T11:07:48.761Z,991.88
2018-12-02T11:08:48.782Z,991.85
2018-12-02T11:09:48.798Z,991.85
2018-12-02T11:10:48.815Z,991.87
2018-12-02T11:11:48.836Z,991.87
2018-12-02T11:12:48.852Z,991.89
2018-12-02T11:13:48.873Z,991.87
2018-12-02T11:14:48.903Z,991.84
2018-12-02T11:15:48.949Z,991.88
2018-12-02T11:16:48.927Z,991.83
2018-12-02T11:17:48.952Z,991.86
2018-12-02T11:18:48.960Z,991.89
2018-12-02T11:19:48.978Z,991.90
2018-12-02T11:20:48.999Z,991.84
2018-12-02T11:21:49.016Z,991.86
2018-12-02T11:22:49.077Z,991.80
2018-12-02T11:23:49.052Z,991.83
2018-12-02T11:24:49.072Z,991.78
2018-12-02T11:25:49.088Z,991.87
2018-12-02T11:26:49.111Z,991.80
2018-12-02T11:27:49.126Z,991.89
2018-12-02T11:28:49.146Z,991.85
2018-12-02T11:29:49.164Z,991.80
2018-12-02T11:30:49.179Z,991.85
2018-12-02T11:31:49.198Z,991.80
2018-12-02T11:32:49.218Z,991.81
2018-12-02T11:33:49.234Z,991.77
2018-12-02T11:34:49.252Z,991.77
2018-12-02T11:35:49.337Z,991.82
2018-12-02T11:36:49.289Z,991.73
2018-12-02T11:37:49.310Z,991.80
2018-12-02T11:38:49.325Z,991.79
2018-12-02T11:39:49.344Z,991.77
2018-12-02T11:40:49.364Z,991.77
2018-12-02T11:41:49.383Z,991.80
2018-12-02T11:42:49.398Z,991.77
2018-12-02T11:43:49.420Z,991.83
2018-12-02T11:44:49.437Z,991.80
2018-12-02T11:45:49.454Z,991.83
2018-12-02T11:46:49.471Z,991.82
2018-12-02T11:47:49.492Z,991.83
2018-12-02T11:48:49.509Z,991.86
2018-12-02T11:49:49.528Z,991.79
2018-12-02T11:50:50.678Z,991.83
2018-12-02T11:51:49.564Z,991.84
2018-12-02T11:52:49.585Z,991.83
2018-12-02T11:53:49.606Z,991.86
2018-12-02T11:54:49.622Z,991.79
2018-12-02T11:55:49.639Z,991.80
2018-12-02T11:56:49.658Z,991.86
2018-12-02T11:57:49.678Z,991.88
2018-12-02T11:58:49.694Z,991.79
2018-12-02T11:59:49.711Z,991.85
2018-12-02T12:00:49.730Z,991.80
2018-12-02T12:01:49.751Z,991.87
2018-12-02T12:02:49.769Z,991.84
2018-12-02T12:03:49.789Z,991.86
2018-12-02T12:04:49.803Z,991.87
2018-12-02T12:05:49.825Z,991.83
2018-12-02T12:06:49.840Z,991.83
2018-12-02T12:07:49.862Z,991.80
2018-12-02T12:08:49.880Z,991.89
2018-12-02T12:09:49.898Z,991.88
2018-12-02T12:10:49.916Z,991.82
2018-12-02T12:11:49.936Z,991.83
2018-12-02T12:12:49.952Z,991.83
2018-12-02T12:13:49.972Z,991.84
2018-12-02T12:14:49.991Z,991.84
2018-12-02T12:15:50.013Z,991.87
2018-12-02T12:16:50.028Z,991.92
2018-12-02T12:17:50.047Z,991.82
2018-12-02T12:18:50.061Z,991.81
2018-12-02T12:19:50.084Z,991.84
2018-12-02T12:20:50.106Z,991.82
2018-12-02T12:21:50.121Z,991.81
2018-12-02T12:22:50.140Z,991.81
2018-12-02T12:23:50.156Z,991.87
2018-12-02T12:24:50.174Z,991.90
2018-12-02T12:25:50.194Z,991.85
2018-12-02T12:26:50.213Z,991.81
2018-12-02T12:27:50.231Z,991.76
2018-12-02T12:28:50.251Z,991.76